sensor_id;sensor_type;location;lat;lon;timestamp;P1;durP1;ratioP1;P2;durP2;ratioP2
69837;SDS011;57135;51.992;4.476;2022-09-30T00:04:24;8.97;;;8.97;;
69837;SDS011;57135;51.992;4.476;2022-09-30T00:11:49;9.20;;;9.20;;
69837;SDS011;57135;51.992;4.476;2022-09-30T00:15:26;9.21;;;9.21;;
69837;SDS011;57135;51.992;4.476;2022-09-30T00:33:30;9.19;;;9.18;;
69837;SDS011;57135;51.992;4.476;2022-09-30T00:37:02;9.17;;;9.16;;
69837;SDS011;57135;51.992;4.476;2022-09-30T00:40:36;9.01;;;9.01;;
69837;SDS011;57135;51.992;4.476;2022-09-30T00:54:49;9.69;;;9.69;;
69837;SDS011;57135;51.992;4.476;2022-09-30T01:05:28;9.12;;;9.12;;
69837;SDS011;57135;51.992;4.476;2022-09-30T01:12:34;9.07;;;9.07;;
69837;SDS011;57135;51.992;4.476;2022-09-30T01:58:40;8.76;;;8.71;;
69837;SDS011;57135;51.992;4.476;2022-09-30T02:05:34;8.92;;;8.84;;
69837;SDS011;57135;51.992;4.476;2022-09-30T02:16:05;8.53;;;8.53;;
69837;SDS011;57135;51.992;4.476;2022-09-30T02:19:44;8.29;;;8.29;;
69837;SDS011;57135;51.992;4.476;2022-09-30T02:23:31;8.60;;;8.53;;
69837;SDS011;57135;51.992;4.476;2022-09-30T02:27:22;8.24;;;8.24;;
69837;SDS011;57135;51.992;4.476;2022-09-30T02:30:54;8.32;;;8.32;;
69837;SDS011;57135;51.992;4.476;2022-09-30T02:34:24;8.60;;;8.59;;
69837;SDS011;57135;51.992;4.476;2022-09-30T02:41:28;9.25;;;9.24;;
69837;SDS011;57135;51.992;4.476;2022-09-30T02:45:13;9.23;;;9.19;;
69837;SDS011;57135;51.992;4.476;2022-09-30T02:48:57;9.04;;;9.04;;
69837;SDS011;57135;51.992;4.476;2022-09-30T02:53:06;9.00;;;9.00;;
69837;SDS011;57135;51.992;4.476;2022-09-30T02:56:36;8.68;;;8.68;;
69837;SDS011;57135;51.992;4.476;2022-09-30T02:59:13;9.15;;;9.15;;
69837;SDS011;57135;51.992;4.476;2022-09-30T03:01:43;9.42;;;9.42;;
69837;SDS011;57135;51.992;4.476;2022-09-30T03:04:21;9.55;;;9.52;;
69837;SDS011;57135;51.992;4.476;2022-09-30T03:06:50;8.73;;;8.72;;
69837;SDS011;57135;51.992;4.476;2022-09-30T03:09:16;8.72;;;8.72;;
69837;SDS011;57135;51.992;4.476;2022-09-30T03:11:52;8.79;;;8.79;;
69837;SDS011;57135;51.992;4.476;2022-09-30T03:14:30;9.14;;;9.11;;
69837;SDS011;57135;51.992;4.476;2022-09-30T03:22:59;8.78;;;8.78;;
69837;SDS011;57135;51.992;4.476;2022-09-30T03:41:44;9.40;;;9.40;;
69837;SDS011;57135;51.992;4.476;2022-09-30T03:47:39;10.38;;;10.27;;
69837;SDS011;57135;51.992;4.476;2022-09-30T03:50:39;9.45;;;9.44;;
69837;SDS011;57135;51.992;4.476;2022-09-30T03:53:45;10.08;;;10.01;;
69837;SDS011;57135;51.992;4.476;2022-09-30T03:56:34;9.73;;;9.73;;
69837;SDS011;57135;51.992;4.476;2022-09-30T03:59:11;10.01;;;10.00;;
69837;SDS011;57135;51.992;4.476;2022-09-30T04:02:10;11.37;;;11.36;;
69837;SDS011;57135;51.992;4.476;2022-09-30T04:05:18;11.29;;;11.29;;
69837;SDS011;57135;51.992;4.476;2022-09-30T04:08:18;10.49;;;10.48;;
69837;SDS011;57135;51.992;4.476;2022-09-30T04:11:06;10.63;;;10.55;;
69837;SDS011;57135;51.992;4.476;2022-09-30T04:14:16;12.61;;;12.61;;
69837;SDS011;57135;51.992;4.476;2022-09-30T04:17:16;12.02;;;12.00;;
69837;SDS011;57135;51.992;4.476;2022-09-30T04:20:09;12.65;;;12.65;;
69837;SDS011;57135;51.992;4.476;2022-09-30T04:23:38;12.94;;;12.94;;
69837;SDS011;57135;51.992;4.476;2022-09-30T04:26:34;13.46;;;13.43;;
69837;SDS011;57135;51.992;4.476;2022-09-30T04:29:19;14.02;;;14.02;;
69837;SDS011;57135;51.992;4.476;2022-09-30T04:32:23;13.46;;;13.45;;
69837;SDS011;57135;51.992;4.476;2022-09-30T04:35:12;15.31;;;15.31;;
69837;SDS011;57135;51.992;4.476;2022-09-30T04:38:19;13.23;;;13.23;;
69837;SDS011;57135;51.992;4.476;2022-09-30T04:41:31;12.41;;;12.41;;
69837;SDS011;57135;51.992;4.476;2022-09-30T04:44:42;12.79;;;12.75;;
69837;SDS011;57135;51.992;4.476;2022-09-30T04:47:31;13.71;;;13.64;;
69837;SDS011;57135;51.992;4.476;2022-09-30T04:50:22;13.09;;;13.04;;
69837;SDS011;57135;51.992;4.476;2022-09-30T04:53:34;13.22;;;13.21;;
69837;SDS011;57135;51.992;4.476;2022-09-30T04:56:21;13.59;;;13.58;;
69837;SDS011;57135;51.992;4.476;2022-09-30T04:59:00;14.85;;;14.82;;
69837;SDS011;57135;51.992;4.476;2022-09-30T05:01:28;15.68;;;15.63;;
69837;SDS011;57135;51.992;4.476;2022-09-30T05:04:18;15.50;;;15.50;;
69837;SDS011;57135;51.992;4.476;2022-09-30T05:07:04;15.92;;;15.92;;
69837;SDS011;57135;51.992;4.476;2022-09-30T05:09:34;16.30;;;16.27;;
69837;SDS011;57135;51.992;4.476;2022-09-30T05:12:00;14.76;;;14.68;;
69837;SDS011;57135;51.992;4.476;2022-09-30T05:14:32;14.50;;;14.44;;
69837;SDS011;57135;51.992;4.476;2022-09-30T05:17:19;13.59;;;13.59;;
69837;SDS011;57135;51.992;4.476;2022-09-30T05:20:26;13.49;;;13.47;;
69837;SDS011;57135;51.992;4.476;2022-09-30T05:22:54;12.75;;;12.73;;
69837;SDS011;57135;51.992;4.476;2022-09-30T05:25:22;12.59;;;12.59;;
69837;SDS011;57135;51.992;4.476;2022-09-30T05:27:49;14.45;;;14.32;;
69837;SDS011;57135;51.992;4.476;2022-09-30T05:30:15;16.40;;;16.31;;
69837;SDS011;57135;51.992;4.476;2022-09-30T05:32:41;17.26;;;17.24;;
69837;SDS011;57135;51.992;4.476;2022-09-30T05:35:07;17.41;;;17.40;;
69837;SDS011;57135;51.992;4.476;2022-09-30T05:37:33;16.43;;;16.43;;
69837;SDS011;57135;51.992;4.476;2022-09-30T05:40:00;15.27;;;15.21;;
69837;SDS011;57135;51.992;4.476;2022-09-30T05:42:26;15.41;;;15.41;;
69837;SDS011;57135;51.992;4.476;2022-09-30T05:45:04;17.94;;;17.84;;
69837;SDS011;57135;51.992;4.476;2022-09-30T05:47:31;18.69;;;18.23;;
69837;SDS011;57135;51.992;4.476;2022-09-30T05:49:57;18.51;;;18.37;;
69837;SDS011;57135;51.992;4.476;2022-09-30T05:52:22;18.00;;;17.97;;
69837;SDS011;57135;51.992;4.476;2022-09-30T05:54:49;18.00;;;17.77;;
69837;SDS011;57135;51.992;4.476;2022-09-30T05:57:16;16.99;;;16.96;;
69837;SDS011;57135;51.992;4.476;2022-09-30T05:59:43;16.54;;;16.52;;
69837;SDS011;57135;51.992;4.476;2022-09-30T06:02:09;16.61;;;16.53;;
69837;SDS011;57135;51.992;4.476;2022-09-30T06:04:36;16.88;;;16.69;;
69837;SDS011;57135;51.992;4.476;2022-09-30T06:07:03;16.25;;;16.19;;
69837;SDS011;57135;51.992;4.476;2022-09-30T06:23:00;16.57;;;16.48;;
69837;SDS011;57135;51.992;4.476;2022-09-30T06:32:26;18.29;;;18.04;;
69837;SDS011;57135;51.992;4.476;2022-09-30T06:35:24;18.54;;;18.21;;
69837;SDS011;57135;51.992;4.476;2022-09-30T06:41:36;18.45;;;18.37;;
69837;SDS011;57135;51.992;4.476;2022-09-30T06:44:46;17.73;;;17.58;;
69837;SDS011;57135;51.992;4.476;2022-09-30T06:47:41;17.77;;;17.75;;
69837;SDS011;57135;51.992;4.476;2022-09-30T06:50:29;16.86;;;16.85;;
69837;SDS011;57135;51.992;4.476;2022-09-30T06:57:14;16.27;;;16.24;;
69837;SDS011;57135;51.992;4.476;2022-09-30T07:03:37;16.46;;;16.41;;
69837;SDS011;57135;51.992;4.476;2022-09-30T07:16:11;15.74;;;15.71;;
69837;SDS011;57135;51.992;4.476;2022-09-30T07:19:45;16.04;;;16.01;;
69837;SDS011;57135;51.992;4.476;2022-09-30T07:26:51;14.10;;;14.10;;
69837;SDS011;57135;51.992;4.476;2022-09-30T07:43:19;12.31;;;12.30;;
69837;SDS011;57135;51.992;4.476;2022-09-30T07:50:52;11.26;;;11.26;;
69837;SDS011;57135;51.992;4.476;2022-09-30T07:57:58;10.19;;;10.15;;
69837;SDS011;57135;51.992;4.476;2022-09-30T08:04:41;8.88;;;8.84;;
69837;SDS011;57135;51.992;4.476;2022-09-30T08:08:11;8.71;;;8.62;;
69837;SDS011;57135;51.992;4.476;2022-09-30T08:11:17;7.47;;;7.47;;
69837;SDS011;57135;51.992;4.476;2022-09-30T09:09:41;2.58;;;2.58;;
69837;SDS011;57135;51.992;4.476;2022-09-30T09:12:27;2.58;;;2.58;;
69837;SDS011;57135;51.992;4.476;2022-09-30T10:42:15;1.89;;;1.89;;
69837;SDS011;57135;51.992;4.476;2022-09-30T13:16:13;2.72;;;2.72;;
69837;SDS011;57135;51.992;4.476;2022-09-30T13:22:41;3.23;;;3.23;;
69837;SDS011;57135;51.992;4.476;2022-09-30T13:48:37;4.48;;;4.48;;
69837;SDS011;57135;51.992;4.476;2022-09-30T13:51:17;4.78;;;4.78;;
69837;SDS011;57135;51.992;4.476;2022-09-30T13:54:45;4.69;;;4.69;;
69837;SDS011;57135;51.992;4.476;2022-09-30T13:57:15;4.46;;;4.46;;
69837;SDS011;57135;51.992;4.476;2022-09-30T14:00:06;4.33;;;4.33;;
69837;SDS011;57135;51.992;4.476;2022-09-30T14:03:13;4.31;;;4.31;;
69837;SDS011;57135;51.992;4.476;2022-09-30T14:27:44;6.69;;;6.69;;
69837;SDS011;57135;51.992;4.476;2022-09-30T14:58:55;9.09;;;9.09;;
69837;SDS011;57135;51.992;4.476;2022-09-30T15:01:29;9.76;;;9.76;;
69837;SDS011;57135;51.992;4.476;2022-09-30T15:05:21;8.78;;;8.78;;
69837;SDS011;57135;51.992;4.476;2022-09-30T15:15:33;9.44;;;9.44;;
69837;SDS011;57135;51.992;4.476;2022-09-30T15:52:47;7.10;;;7.10;;
69837;SDS011;57135;51.992;4.476;2022-09-30T15:55:55;7.00;;;7.00;;
69837;SDS011;57135;51.992;4.476;2022-09-30T15:59:55;6.75;;;6.75;;
69837;SDS011;57135;51.992;4.476;2022-09-30T16:02:32;6.92;;;6.92;;
69837;SDS011;57135;51.992;4.476;2022-09-30T16:09:33;6.71;;;6.71;;
69837;SDS011;57135;51.992;4.476;2022-09-30T16:13:19;6.33;;;6.33;;
69837;SDS011;57135;51.992;4.476;2022-09-30T16:24:00;6.50;;;6.50;;
69837;SDS011;57135;51.992;4.476;2022-09-30T16:30:52;5.75;;;5.75;;
69837;SDS011;57135;51.992;4.476;2022-09-30T16:34:37;5.70;;;5.70;;
69837;SDS011;57135;51.992;4.476;2022-09-30T16:56:35;5.48;;;5.48;;
69837;SDS011;57135;51.992;4.476;2022-09-30T16:59:18;5.69;;;5.69;;
69837;SDS011;57135;51.992;4.476;2022-09-30T17:09:06;5.52;;;5.52;;
69837;SDS011;57135;51.992;4.476;2022-09-30T17:11:42;5.23;;;5.23;;
69837;SDS011;57135;51.992;4.476;2022-09-30T17:14:08;5.20;;;5.20;;
69837;SDS011;57135;51.992;4.476;2022-09-30T17:16:33;5.17;;;5.17;;
69837;SDS011;57135;51.992;4.476;2022-09-30T17:19:00;5.30;;;5.30;;
69837;SDS011;57135;51.992;4.476;2022-09-30T17:21:45;5.06;;;5.06;;
69837;SDS011;57135;51.992;4.476;2022-09-30T17:24:10;5.33;;;5.33;;
69837;SDS011;57135;51.992;4.476;2022-09-30T17:26:57;5.10;;;5.10;;
69837;SDS011;57135;51.992;4.476;2022-09-30T17:30:00;5.11;;;5.11;;
69837;SDS011;57135;51.992;4.476;2022-09-30T17:33:39;5.38;;;5.38;;
69837;SDS011;57135;51.992;4.476;2022-09-30T18:54:22;4.32;;;4.32;;
69837;SDS011;57135;51.992;4.476;2022-09-30T18:58:10;4.00;;;4.00;;
69837;SDS011;57135;51.992;4.476;2022-09-30T19:15:52;4.22;;;4.22;;
69837;SDS011;57135;51.992;4.476;2022-09-30T20:30:39;4.24;;;4.24;;
69837;SDS011;57135;51.992;4.476;2022-09-30T20:34:08;4.78;;;4.78;;
69837;SDS011;57135;51.992;4.476;2022-09-30T20:37:27;4.55;;;4.55;;
69837;SDS011;57135;51.992;4.476;2022-09-30T20:40:16;4.52;;;4.52;;
69837;SDS011;57135;51.992;4.476;2022-09-30T20:43:38;4.65;;;4.65;;
69837;SDS011;57135;51.992;4.476;2022-09-30T20:46:24;4.88;;;4.88;;
69837;SDS011;57135;51.992;4.476;2022-09-30T20:53:09;5.05;;;5.05;;
69837;SDS011;57135;51.992;4.476;2022-09-30T20:56:48;5.55;;;5.55;;
69837;SDS011;57135;51.992;4.476;2022-09-30T21:03:29;5.99;;;5.99;;
69837;SDS011;57135;51.992;4.476;2022-09-30T21:10:25;6.17;;;6.17;;
